Aviation Digital Data Service (ADDS)

Output produced by METARs form (0527 UTC 21 December 2014)
found at http://aviationweather.gov/adds/metars/
 
KHKY 210520Z 2106/2206 00000KT P6SM OVC019 
     FM210900 00000KT 4SM BR OVC019 
     TEMPO 2111/2113 2SM BR OVC009 
     FM211400 06003KT P6SM OVC021 
     FM220400 08004KT P6SM -RA BKN019